sensor_id;sensor_type;location;lat;lon;timestamp;P1;durP1;ratioP1;P2;durP2;ratioP2
34737;SDS011;39910;47.154;27.614;2022-08-25T00:01:39;10.00;;;9.60;;
34737;SDS011;39910;47.154;27.614;2022-08-25T00:04:09;10.20;;;9.70;;
34737;SDS011;39910;47.154;27.614;2022-08-25T00:06:38;10.50;;;10.00;;
34737;SDS011;39910;47.154;27.614;2022-08-25T00:09:06;10.25;;;9.77;;
34737;SDS011;39910;47.154;27.614;2022-08-25T00:11:33;10.40;;;9.90;;
34737;SDS011;39910;47.154;27.614;2022-08-25T00:14:05;9.88;;;9.48;;
34737;SDS011;39910;47.154;27.614;2022-08-25T00:16:33;10.43;;;9.93;;
34737;SDS011;39910;47.154;27.614;2022-08-25T00:19:00;10.23;;;9.73;;
34737;SDS011;39910;47.154;27.614;2022-08-25T00:21:29;10.00;;;9.60;;
34737;SDS011;39910;47.154;27.614;2022-08-25T00:23:56;10.10;;;9.68;;
34737;SDS011;39910;47.154;27.614;2022-08-25T00:26:22;10.05;;;9.60;;
34737;SDS011;39910;47.154;27.614;2022-08-25T00:28:48;9.90;;;9.50;;
34737;SDS011;39910;47.154;27.614;2022-08-25T00:31:14;10.13;;;9.63;;
34737;SDS011;39910;47.154;27.614;2022-08-25T00:33:43;10.30;;;9.80;;
34737;SDS011;39910;47.154;27.614;2022-08-25T00:36:09;10.45;;;9.95;;
34737;SDS011;39910;47.154;27.614;2022-08-25T00:38:38;10.23;;;9.77;;
34737;SDS011;39910;47.154;27.614;2022-08-25T00:41:04;9.95;;;9.55;;
34737;SDS011;39910;47.154;27.614;2022-08-25T00:46:07;9.95;;;9.55;;
34737;SDS011;39910;47.154;27.614;2022-08-25T00:48:33;10.50;;;10.00;;
34737;SDS011;39910;47.154;27.614;2022-08-25T00:50:59;10.32;;;9.82;;
34737;SDS011;39910;47.154;27.614;2022-08-25T00:53:27;10.30;;;9.80;;
34737;SDS011;39910;47.154;27.614;2022-08-25T00:55:54;9.95;;;9.55;;
34737;SDS011;39910;47.154;27.614;2022-08-25T00:58:21;10.05;;;9.65;;
34737;SDS011;39910;47.154;27.614;2022-08-25T01:00:50;9.90;;;9.50;;
34737;SDS011;39910;47.154;27.614;2022-08-25T01:03:20;9.98;;;9.57;;
34737;SDS011;39910;47.154;27.614;2022-08-25T01:05:47;10.07;;;9.63;;
34737;SDS011;39910;47.154;27.614;2022-08-25T01:08:14;10.30;;;9.80;;
34737;SDS011;39910;47.154;27.614;2022-08-25T01:10:45;9.80;;;9.40;;
34737;SDS011;39910;47.154;27.614;2022-08-25T01:13:14;9.90;;;9.50;;
34737;SDS011;39910;47.154;27.614;2022-08-25T01:15:45;10.20;;;9.70;;
34737;SDS011;39910;47.154;27.614;2022-08-25T01:18:11;10.38;;;9.88;;
34737;SDS011;39910;47.154;27.614;2022-08-25T01:20:38;10.23;;;9.75;;
34737;SDS011;39910;47.154;27.614;2022-08-25T01:23:04;10.18;;;9.70;;
34737;SDS011;39910;47.154;27.614;2022-08-25T01:28:01;9.70;;;9.30;;
34737;SDS011;39910;47.154;27.614;2022-08-25T01:30:27;10.07;;;9.60;;
34737;SDS011;39910;47.154;27.614;2022-08-25T01:32:53;10.20;;;9.70;;
34737;SDS011;39910;47.154;27.614;2022-08-25T01:35:19;9.98;;;9.57;;
34737;SDS011;39910;47.154;27.614;2022-08-25T01:37:44;10.05;;;9.65;;
34737;SDS011;39910;47.154;27.614;2022-08-25T01:40:10;10.50;;;10.00;;
34737;SDS011;39910;47.154;27.614;2022-08-25T01:45:30;10.00;;;9.60;;
34737;SDS011;39910;47.154;27.614;2022-08-25T01:47:55;10.23;;;9.73;;
34737;SDS011;39910;47.154;27.614;2022-08-25T01:50:21;10.18;;;9.70;;
34737;SDS011;39910;47.154;27.614;2022-08-25T01:52:54;9.90;;;9.50;;
34737;SDS011;39910;47.154;27.614;2022-08-25T01:55:24;10.38;;;9.88;;
34737;SDS011;39910;47.154;27.614;2022-08-25T01:57:49;10.60;;;10.10;;
34737;SDS011;39910;47.154;27.614;2022-08-25T02:00:15;9.95;;;9.55;;
34737;SDS011;39910;47.154;27.614;2022-08-25T02:02:42;10.32;;;9.82;;
34737;SDS011;39910;47.154;27.614;2022-08-25T02:05:09;10.30;;;9.80;;
34737;SDS011;39910;47.154;27.614;2022-08-25T02:07:37;10.00;;;9.55;;
34737;SDS011;39910;47.154;27.614;2022-08-25T02:10:03;10.38;;;9.88;;
34737;SDS011;39910;47.154;27.614;2022-08-25T02:12:31;10.02;;;9.60;;
34737;SDS011;39910;47.154;27.614;2022-08-25T02:14:58;9.80;;;9.40;;
34737;SDS011;39910;47.154;27.614;2022-08-25T02:17:26;9.82;;;9.43;;
34737;SDS011;39910;47.154;27.614;2022-08-25T02:19:53;9.95;;;9.50;;
34737;SDS011;39910;47.154;27.614;2022-08-25T02:22:20;10.45;;;9.95;;
34737;SDS011;39910;47.154;27.614;2022-08-25T02:24:45;10.30;;;9.80;;
34737;SDS011;39910;47.154;27.614;2022-08-25T02:27:12;10.20;;;9.70;;
34737;SDS011;39910;47.154;27.614;2022-08-25T02:29:37;10.25;;;9.75;;
34737;SDS011;39910;47.154;27.614;2022-08-25T02:32:03;9.85;;;9.45;;
34737;SDS011;39910;47.154;27.614;2022-08-25T02:34:29;10.60;;;10.10;;
34737;SDS011;39910;47.154;27.614;2022-08-25T02:36:55;10.40;;;9.90;;
34737;SDS011;39910;47.154;27.614;2022-08-25T02:39:21;10.05;;;9.60;;
34737;SDS011;39910;47.154;27.614;2022-08-25T02:41:46;10.20;;;9.70;;
34737;SDS011;39910;47.154;27.614;2022-08-25T02:44:12;10.10;;;9.60;;
34737;SDS011;39910;47.154;27.614;2022-08-25T02:46:37;10.38;;;9.88;;
34737;SDS011;39910;47.154;27.614;2022-08-25T02:49:03;10.07;;;9.65;;
34737;SDS011;39910;47.154;27.614;2022-08-25T02:51:29;10.20;;;9.70;;
34737;SDS011;39910;47.154;27.614;2022-08-25T02:53:56;10.70;;;10.20;;
34737;SDS011;39910;47.154;27.614;2022-08-25T02:56:23;9.90;;;9.50;;
34737;SDS011;39910;47.154;27.614;2022-08-25T02:58:49;10.55;;;10.05;;
34737;SDS011;39910;47.154;27.614;2022-08-25T03:01:15;10.30;;;9.80;;
34737;SDS011;39910;47.154;27.614;2022-08-25T03:03:42;10.25;;;9.75;;
34737;SDS011;39910;47.154;27.614;2022-08-25T03:06:11;10.60;;;10.10;;
34737;SDS011;39910;47.154;27.614;2022-08-25T03:08:38;10.30;;;9.80;;
34737;SDS011;39910;47.154;27.614;2022-08-25T03:11:05;10.00;;;9.60;;
34737;SDS011;39910;47.154;27.614;2022-08-25T03:13:31;9.90;;;9.50;;
34737;SDS011;39910;47.154;27.614;2022-08-25T03:15:58;10.10;;;9.65;;
34737;SDS011;39910;47.154;27.614;2022-08-25T03:18:24;10.00;;;9.60;;
34737;SDS011;39910;47.154;27.614;2022-08-25T03:20:50;10.25;;;9.75;;
34737;SDS011;39910;47.154;27.614;2022-08-25T03:23:15;10.43;;;9.93;;
34737;SDS011;39910;47.154;27.614;2022-08-25T03:25:41;10.50;;;10.00;;
34737;SDS011;39910;47.154;27.614;2022-08-25T03:28:25;10.13;;;9.65;;
34737;SDS011;39910;47.154;27.614;2022-08-25T03:30:51;10.18;;;9.68;;
34737;SDS011;39910;47.154;27.614;2022-08-25T03:33:17;9.98;;;9.55;;
34737;SDS011;39910;47.154;27.614;2022-08-25T03:35:43;10.40;;;9.90;;
34737;SDS011;39910;47.154;27.614;2022-08-25T03:38:11;10.05;;;9.63;;
34737;SDS011;39910;47.154;27.614;2022-08-25T03:40:36;10.10;;;9.65;;
34737;SDS011;39910;47.154;27.614;2022-08-25T03:43:02;10.18;;;9.68;;
34737;SDS011;39910;47.154;27.614;2022-08-25T03:45:27;10.25;;;9.75;;
34737;SDS011;39910;47.154;27.614;2022-08-25T03:47:53;10.18;;;9.73;;
34737;SDS011;39910;47.154;27.614;2022-08-25T03:50:19;10.60;;;10.10;;
34737;SDS011;39910;47.154;27.614;2022-08-25T03:52:49;10.40;;;9.90;;
34737;SDS011;39910;47.154;27.614;2022-08-25T03:55:17;10.23;;;9.73;;
34737;SDS011;39910;47.154;27.614;2022-08-25T03:57:43;10.50;;;10.00;;
34737;SDS011;39910;47.154;27.614;2022-08-25T04:00:09;10.20;;;9.70;;
34737;SDS011;39910;47.154;27.614;2022-08-25T04:02:36;10.13;;;9.63;;
34737;SDS011;39910;47.154;27.614;2022-08-25T04:05:02;10.90;;;10.40;;
34737;SDS011;39910;47.154;27.614;2022-08-25T04:07:29;10.70;;;10.20;;
34737;SDS011;39910;47.154;27.614;2022-08-25T04:09:55;10.13;;;9.73;;
34737;SDS011;39910;47.154;27.614;2022-08-25T04:12:20;10.00;;;9.60;;
34737;SDS011;39910;47.154;27.614;2022-08-25T04:14:46;10.30;;;9.80;;
34737;SDS011;39910;47.154;27.614;2022-08-25T04:17:11;10.15;;;9.75;;
34737;SDS011;39910;47.154;27.614;2022-08-25T04:19:38;10.50;;;10.00;;
34737;SDS011;39910;47.154;27.614;2022-08-25T04:22:04;10.50;;;10.02;;
34737;SDS011;39910;47.154;27.614;2022-08-25T04:24:29;9.88;;;9.48;;
34737;SDS011;39910;47.154;27.614;2022-08-25T04:26:54;10.48;;;9.98;;
34737;SDS011;39910;47.154;27.614;2022-08-25T04:29:21;10.00;;;9.60;;
34737;SDS011;39910;47.154;27.614;2022-08-25T04:31:48;10.20;;;9.80;;
34737;SDS011;39910;47.154;27.614;2022-08-25T04:34:17;10.50;;;10.00;;
34737;SDS011;39910;47.154;27.614;2022-08-25T04:36:45;10.07;;;9.68;;
34737;SDS011;39910;47.154;27.614;2022-08-25T04:39:11;9.85;;;9.45;;
34737;SDS011;39910;47.154;27.614;2022-08-25T04:41:37;10.23;;;9.82;;
34737;SDS011;39910;47.154;27.614;2022-08-25T04:44:03;10.50;;;10.00;;
34737;SDS011;39910;47.154;27.614;2022-08-25T04:46:31;10.48;;;9.98;;
34737;SDS011;39910;47.154;27.614;2022-08-25T04:48:58;10.43;;;9.93;;
34737;SDS011;39910;47.154;27.614;2022-08-25T04:51:28;10.30;;;9.90;;
34737;SDS011;39910;47.154;27.614;2022-08-25T04:53:57;10.00;;;9.60;;
34737;SDS011;39910;47.154;27.614;2022-08-25T04:56:29;10.43;;;9.95;;
34737;SDS011;39910;47.154;27.614;2022-08-25T04:58:59;10.25;;;9.85;;
34737;SDS011;39910;47.154;27.614;2022-08-25T05:01:27;10.73;;;10.23;;
34737;SDS011;39910;47.154;27.614;2022-08-25T05:03:57;10.07;;;9.68;;
34737;SDS011;39910;47.154;27.614;2022-08-25T05:06:24;9.70;;;9.30;;
34737;SDS011;39910;47.154;27.614;2022-08-25T05:08:51;10.30;;;9.90;;
34737;SDS011;39910;47.154;27.614;2022-08-25T05:11:17;10.25;;;9.85;;
34737;SDS011;39910;47.154;27.614;2022-08-25T05:13:44;10.00;;;9.60;;
34737;SDS011;39910;47.154;27.614;2022-08-25T05:16:11;9.82;;;9.43;;
34737;SDS011;39910;47.154;27.614;2022-08-25T05:18:37;10.30;;;9.90;;
34737;SDS011;39910;47.154;27.614;2022-08-25T05:21:04;10.15;;;9.75;;
34737;SDS011;39910;47.154;27.614;2022-08-25T05:23:41;9.95;;;9.55;;
34737;SDS011;39910;47.154;27.614;2022-08-25T05:26:08;10.05;;;9.65;;
34737;SDS011;39910;47.154;27.614;2022-08-25T05:28:39;9.90;;;9.50;;
34737;SDS011;39910;47.154;27.614;2022-08-25T05:31:06;9.93;;;9.52;;
34737;SDS011;39910;47.154;27.614;2022-08-25T05:33:33;10.20;;;9.80;;
34737;SDS011;39910;47.154;27.614;2022-08-25T05:36:00;10.10;;;9.70;;
34737;SDS011;39910;47.154;27.614;2022-08-25T05:38:26;10.10;;;9.70;;
34737;SDS011;39910;47.154;27.614;2022-08-25T05:40:56;10.30;;;9.90;;
34737;SDS011;39910;47.154;27.614;2022-08-25T05:43:22;10.10;;;9.70;;
34737;SDS011;39910;47.154;27.614;2022-08-25T05:45:48;10.02;;;9.63;;
34737;SDS011;39910;47.154;27.614;2022-08-25T05:48:15;10.10;;;9.70;;
34737;SDS011;39910;47.154;27.614;2022-08-25T05:50:40;10.07;;;9.68;;
34737;SDS011;39910;47.154;27.614;2022-08-25T05:53:06;10.20;;;9.80;;
34737;SDS011;39910;47.154;27.614;2022-08-25T05:55:32;10.10;;;9.70;;
34737;SDS011;39910;47.154;27.614;2022-08-25T05:57:58;10.23;;;9.82;;
34737;SDS011;39910;47.154;27.614;2022-08-25T06:00:24;10.10;;;9.70;;
34737;SDS011;39910;47.154;27.614;2022-08-25T06:02:50;10.20;;;9.80;;
34737;SDS011;39910;47.154;27.614;2022-08-25T06:05:17;10.40;;;9.95;;
34737;SDS011;39910;47.154;27.614;2022-08-25T06:07:49;10.50;;;10.00;;
34737;SDS011;39910;47.154;27.614;2022-08-25T06:10:17;10.30;;;9.90;;
34737;SDS011;39910;47.154;27.614;2022-08-25T06:12:44;10.10;;;9.70;;
34737;SDS011;39910;47.154;27.614;2022-08-25T06:15:12;9.85;;;9.45;;
34737;SDS011;39910;47.154;27.614;2022-08-25T06:17:42;10.38;;;9.90;;
34737;SDS011;39910;47.154;27.614;2022-08-25T06:20:09;10.10;;;9.70;;
34737;SDS011;39910;47.154;27.614;2022-08-25T06:22:37;9.88;;;9.48;;
34737;SDS011;39910;47.154;27.614;2022-08-25T06:25:04;10.07;;;9.68;;
34737;SDS011;39910;47.154;27.614;2022-08-25T06:27:30;10.07;;;9.68;;
34737;SDS011;39910;47.154;27.614;2022-08-25T06:29:56;10.18;;;9.77;;
34737;SDS011;39910;47.154;27.614;2022-08-25T06:32:21;10.23;;;9.82;;
34737;SDS011;39910;47.154;27.614;2022-08-25T06:34:47;10.60;;;10.10;;
34737;SDS011;39910;47.154;27.614;2022-08-25T06:37:12;10.15;;;9.75;;
34737;SDS011;39910;47.154;27.614;2022-08-25T06:39:38;10.27;;;9.88;;
34737;SDS011;39910;47.154;27.614;2022-08-25T06:42:04;10.15;;;9.75;;
34737;SDS011;39910;47.154;27.614;2022-08-25T06:44:29;10.20;;;9.80;;
34737;SDS011;39910;47.154;27.614;2022-08-25T06:46:55;10.05;;;9.65;;
34737;SDS011;39910;47.154;27.614;2022-08-25T06:49:21;9.95;;;9.55;;
34737;SDS011;39910;47.154;27.614;2022-08-25T06:51:47;10.60;;;10.10;;
34737;SDS011;39910;47.154;27.614;2022-08-25T06:54:14;10.55;;;10.05;;
34737;SDS011;39910;47.154;27.614;2022-08-25T06:56:40;9.95;;;9.55;;
34737;SDS011;39910;47.154;27.614;2022-08-25T06:59:07;10.27;;;9.88;;
34737;SDS011;39910;47.154;27.614;2022-08-25T07:01:34;10.25;;;9.85;;
34737;SDS011;39910;47.154;27.614;2022-08-25T07:04:02;10.65;;;10.15;;
34737;SDS011;39910;47.154;27.614;2022-08-25T07:06:30;10.20;;;9.80;;
34737;SDS011;39910;47.154;27.614;2022-08-25T07:08:59;10.38;;;9.95;;
34737;SDS011;39910;47.154;27.614;2022-08-25T07:11:26;10.50;;;10.00;;
34737;SDS011;39910;47.154;27.614;2022-08-25T07:13:52;9.77;;;9.38;;
34737;SDS011;39910;47.154;27.614;2022-08-25T07:16:18;10.00;;;9.60;;
34737;SDS011;39910;47.154;27.614;2022-08-25T07:18:45;10.00;;;9.60;;
34737;SDS011;39910;47.154;27.614;2022-08-25T07:21:11;10.00;;;9.60;;
34737;SDS011;39910;47.154;27.614;2022-08-25T07:23:38;9.77;;;9.38;;
34737;SDS011;39910;47.154;27.614;2022-08-25T07:26:12;9.70;;;9.30;;
34737;SDS011;39910;47.154;27.614;2022-08-25T07:28:38;9.85;;;9.45;;
34737;SDS011;39910;47.154;27.614;2022-08-25T07:31:04;9.88;;;9.48;;
34737;SDS011;39910;47.154;27.614;2022-08-25T07:33:30;10.07;;;9.68;;
34737;SDS011;39910;47.154;27.614;2022-08-25T07:35:56;9.90;;;9.50;;
34737;SDS011;39910;47.154;27.614;2022-08-25T07:38:22;10.05;;;9.65;;
34737;SDS011;39910;47.154;27.614;2022-08-25T07:40:48;10.30;;;9.90;;
34737;SDS011;39910;47.154;27.614;2022-08-25T07:43:18;10.18;;;9.77;;
34737;SDS011;39910;47.154;27.614;2022-08-25T07:45:46;10.25;;;9.85;;
34737;SDS011;39910;47.154;27.614;2022-08-25T07:48:11;10.20;;;9.80;;
34737;SDS011;39910;47.154;27.614;2022-08-25T07:50:38;10.52;;;10.02;;
34737;SDS011;39910;47.154;27.614;2022-08-25T07:53:10;10.70;;;10.20;;
34737;SDS011;39910;47.154;27.614;2022-08-25T07:55:37;10.25;;;9.85;;
34737;SDS011;39910;47.154;27.614;2022-08-25T07:58:04;10.45;;;9.98;;
34737;SDS011;39910;47.154;27.614;2022-08-25T08:00:31;10.80;;;10.30;;
34737;SDS011;39910;47.154;27.614;2022-08-25T08:03:01;10.10;;;9.70;;
34737;SDS011;39910;47.154;27.614;2022-08-25T08:05:28;10.43;;;9.95;;
34737;SDS011;39910;47.154;27.614;2022-08-25T08:07:55;10.25;;;9.85;;
34737;SDS011;39910;47.154;27.614;2022-08-25T08:10:22;10.10;;;9.70;;
34737;SDS011;39910;47.154;27.614;2022-08-25T08:12:49;10.10;;;9.70;;
34737;SDS011;39910;47.154;27.614;2022-08-25T08:15:15;9.90;;;9.50;;
34737;SDS011;39910;47.154;27.614;2022-08-25T08:17:41;9.73;;;9.32;;
34737;SDS011;39910;47.154;27.614;2022-08-25T08:20:08;10.02;;;9.63;;
34737;SDS011;39910;47.154;27.614;2022-08-25T08:22:35;9.82;;;9.43;;
34737;SDS011;39910;47.154;27.614;2022-08-25T08:25:03;10.00;;;9.60;;
34737;SDS011;39910;47.154;27.614;2022-08-25T08:27:30;10.20;;;9.80;;
34737;SDS011;39910;47.154;27.614;2022-08-25T08:29:55;9.93;;;9.52;;
34737;SDS011;39910;47.154;27.614;2022-08-25T08:32:21;10.02;;;9.63;;
34737;SDS011;39910;47.154;27.614;2022-08-25T08:34:46;10.07;;;9.68;;
34737;SDS011;39910;47.154;27.614;2022-08-25T08:37:13;10.20;;;9.80;;
34737;SDS011;39910;47.154;27.614;2022-08-25T08:39:40;10.25;;;9.82;;
34737;SDS011;39910;47.154;27.614;2022-08-25T08:52:43;10.30;;;9.90;;
34737;SDS011;39910;47.154;27.614;2022-08-25T08:55:33;10.18;;;9.77;;
34737;SDS011;39910;47.154;27.614;2022-08-25T08:58:20;10.40;;;9.90;;
34737;SDS011;39910;47.154;27.614;2022-08-25T09:00:49;10.57;;;10.07;;
34737;SDS011;39910;47.154;27.614;2022-08-25T09:04:02;10.23;;;9.82;;
34737;SDS011;39910;47.154;27.614;2022-08-25T09:06:23;10.50;;;10.00;;
34737;SDS011;39910;47.154;27.614;2022-08-25T09:08:49;10.55;;;10.05;;
34737;SDS011;39910;47.154;27.614;2022-08-25T09:32:34;10.70;;;10.20;;
34737;SDS011;39910;47.154;27.614;2022-08-25T09:35:04;10.60;;;10.10;;
34737;SDS011;39910;47.154;27.614;2022-08-25T09:37:32;10.90;;;10.40;;
34737;SDS011;39910;47.154;27.614;2022-08-25T09:39:57;10.90;;;10.40;;
34737;SDS011;39910;47.154;27.614;2022-08-25T09:42:27;11.10;;;10.60;;
34737;SDS011;39910;47.154;27.614;2022-08-25T09:45:18;10.90;;;10.40;;
34737;SDS011;39910;47.154;27.614;2022-08-25T09:47:56;10.88;;;10.38;;
34737;SDS011;39910;47.154;27.614;2022-08-25T09:50:22;11.18;;;10.68;;
34737;SDS011;39910;47.154;27.614;2022-08-25T09:52:47;11.30;;;10.80;;
34737;SDS011;39910;47.154;27.614;2022-08-25T10:02:59;10.68;;;10.18;;
34737;SDS011;39910;47.154;27.614;2022-08-25T10:05:29;10.57;;;10.07;;
34737;SDS011;39910;47.154;27.614;2022-08-25T10:08:00;10.70;;;10.20;;
34737;SDS011;39910;47.154;27.614;2022-08-25T10:10:36;11.13;;;10.63;;
34737;SDS011;39910;47.154;27.614;2022-08-25T10:13:16;10.80;;;10.30;;
34737;SDS011;39910;47.154;27.614;2022-08-25T10:15:43;10.70;;;10.20;;
34737;SDS011;39910;47.154;27.614;2022-08-25T10:23:39;10.85;;;10.35;;
34737;SDS011;39910;47.154;27.614;2022-08-25T10:26:13;10.35;;;9.93;;
34737;SDS011;39910;47.154;27.614;2022-08-25T10:28:52;11.25;;;10.75;;
34737;SDS011;39910;47.154;27.614;2022-08-25T10:31:22;11.07;;;10.57;;
34737;SDS011;39910;47.154;27.614;2022-08-25T10:39:22;11.02;;;10.52;;
34737;SDS011;39910;47.154;27.614;2022-08-25T10:50:21;10.75;;;10.25;;
34737;SDS011;39910;47.154;27.614;2022-08-25T10:53:01;10.93;;;10.43;;
34737;SDS011;39910;47.154;27.614;2022-08-25T10:55:53;11.02;;;10.52;;
34737;SDS011;39910;47.154;27.614;2022-08-25T11:04:19;10.80;;;10.30;;
34737;SDS011;39910;47.154;27.614;2022-08-25T11:06:54;10.75;;;10.25;;
34737;SDS011;39910;47.154;27.614;2022-08-25T11:09:23;11.30;;;10.80;;
34737;SDS011;39910;47.154;27.614;2022-08-25T11:11:57;11.02;;;10.52;;
34737;SDS011;39910;47.154;27.614;2022-08-25T11:19:30;10.65;;;10.15;;
34737;SDS011;39910;47.154;27.614;2022-08-25T11:27:04;10.65;;;10.15;;
34737;SDS011;39910;47.154;27.614;2022-08-25T11:29:34;11.13;;;10.63;;
34737;SDS011;39910;47.154;27.614;2022-08-25T11:32:02;11.00;;;10.50;;
34737;SDS011;39910;47.154;27.614;2022-08-25T11:34:32;10.80;;;10.30;;
34737;SDS011;39910;47.154;27.614;2022-08-25T11:37:02;10.93;;;10.43;;
34737;SDS011;39910;47.154;27.614;2022-08-25T11:39:41;10.80;;;10.30;;
34737;SDS011;39910;47.154;27.614;2022-08-25T11:45:29;10.82;;;10.32;;
34737;SDS011;39910;47.154;27.614;2022-08-25T11:51:08;10.85;;;10.35;;
34737;SDS011;39910;47.154;27.614;2022-08-25T11:53:39;10.77;;;10.27;;
34737;SDS011;39910;47.154;27.614;2022-08-25T11:56:07;10.18;;;9.77;;
34737;SDS011;39910;47.154;27.614;2022-08-25T11:58:55;10.90;;;10.40;;
34737;SDS011;39910;47.154;27.614;2022-08-25T12:04:15;10.77;;;10.27;;
34737;SDS011;39910;47.154;27.614;2022-08-25T12:09:29;10.35;;;9.88;;
34737;SDS011;39910;47.154;27.614;2022-08-25T12:11:57;10.68;;;10.18;;
34737;SDS011;39910;47.154;27.614;2022-08-25T12:25:12;10.40;;;9.90;;
34737;SDS011;39910;47.154;27.614;2022-08-25T12:35:38;10.45;;;9.95;;
34737;SDS011;39910;47.154;27.614;2022-08-25T12:38:17;10.00;;;9.60;;
34737;SDS011;39910;47.154;27.614;2022-08-25T12:41:06;10.52;;;10.02;;
34737;SDS011;39910;47.154;27.614;2022-08-25T12:43:36;10.48;;;9.98;;
34737;SDS011;39910;47.154;27.614;2022-08-25T12:54:38;10.60;;;10.10;;
34737;SDS011;39910;47.154;27.614;2022-08-25T12:57:32;10.70;;;10.20;;
34737;SDS011;39910;47.154;27.614;2022-08-25T13:05:46;10.70;;;10.20;;
34737;SDS011;39910;47.154;27.614;2022-08-25T13:10:54;10.70;;;10.20;;
34737;SDS011;39910;47.154;27.614;2022-08-25T13:13:36;10.15;;;9.75;;
34737;SDS011;39910;47.154;27.614;2022-08-25T13:16:15;10.55;;;10.05;;
34737;SDS011;39910;47.154;27.614;2022-08-25T13:18:47;10.32;;;9.88;;
34737;SDS011;39910;47.154;27.614;2022-08-25T13:23:39;10.70;;;10.20;;
34737;SDS011;39910;47.154;27.614;2022-08-25T13:26:06;10.60;;;10.10;;
34737;SDS011;39910;47.154;27.614;2022-08-25T13:29:01;10.13;;;9.73;;
34737;SDS011;39910;47.154;27.614;2022-08-25T13:31:35;10.10;;;9.70;;
34737;SDS011;39910;47.154;27.614;2022-08-25T13:34:04;10.00;;;9.60;;
34737;SDS011;39910;47.154;27.614;2022-08-25T13:36:35;10.43;;;10.00;;
34737;SDS011;39910;47.154;27.614;2022-08-25T13:41:53;10.10;;;9.70;;
34737;SDS011;39910;47.154;27.614;2022-08-25T13:44:24;10.20;;;9.80;;
34737;SDS011;39910;47.154;27.614;2022-08-25T13:50:12;11.18;;;10.68;;
34737;SDS011;39910;47.154;27.614;2022-08-25T13:55:35;11.38;;;10.88;;
34737;SDS011;39910;47.154;27.614;2022-08-25T13:58:01;10.65;;;10.15;;
34737;SDS011;39910;47.154;27.614;2022-08-25T14:00:36;10.57;;;10.07;;
34737;SDS011;39910;47.154;27.614;2022-08-25T14:03:26;10.75;;;10.25;;
34737;SDS011;39910;47.154;27.614;2022-08-25T14:06:30;10.48;;;9.98;;
34737;SDS011;39910;47.154;27.614;2022-08-25T14:11:30;10.48;;;9.98;;
34737;SDS011;39910;47.154;27.614;2022-08-25T14:14:07;11.18;;;10.68;;
34737;SDS011;39910;47.154;27.614;2022-08-25T14:16:44;10.73;;;10.23;;
34737;SDS011;39910;47.154;27.614;2022-08-25T14:19:14;10.80;;;10.30;;
34737;SDS011;39910;47.154;27.614;2022-08-25T14:21:43;10.02;;;9.63;;
34737;SDS011;39910;47.154;27.614;2022-08-25T14:24:09;11.05;;;10.55;;
34737;SDS011;39910;47.154;27.614;2022-08-25T14:26:39;11.07;;;10.57;;
34737;SDS011;39910;47.154;27.614;2022-08-25T14:29:04;10.93;;;10.43;;
34737;SDS011;39910;47.154;27.614;2022-08-25T14:31:31;10.70;;;10.20;;
34737;SDS011;39910;47.154;27.614;2022-08-25T14:36:27;11.02;;;10.52;;
34737;SDS011;39910;47.154;27.614;2022-08-25T14:38:54;11.05;;;10.55;;
34737;SDS011;39910;47.154;27.614;2022-08-25T14:41:19;10.93;;;10.43;;
34737;SDS011;39910;47.154;27.614;2022-08-25T14:43:46;10.52;;;10.02;;
34737;SDS011;39910;47.154;27.614;2022-08-25T14:46:22;10.85;;;10.35;;
34737;SDS011;39910;47.154;27.614;2022-08-25T14:48:52;11.02;;;10.52;;
34737;SDS011;39910;47.154;27.614;2022-08-25T14:51:23;10.88;;;10.38;;
34737;SDS011;39910;47.154;27.614;2022-08-25T14:53:51;10.63;;;10.13;;
34737;SDS011;39910;47.154;27.614;2022-08-25T14:56:20;10.40;;;9.90;;
34737;SDS011;39910;47.154;27.614;2022-08-25T14:58:45;10.85;;;10.35;;
34737;SDS011;39910;47.154;27.614;2022-08-25T15:01:12;10.80;;;10.30;;
34737;SDS011;39910;47.154;27.614;2022-08-25T15:03:41;11.27;;;10.77;;
34737;SDS011;39910;47.154;27.614;2022-08-25T15:06:10;10.90;;;10.40;;
34737;SDS011;39910;47.154;27.614;2022-08-25T15:08:38;10.98;;;10.48;;
34737;SDS011;39910;47.154;27.614;2022-08-25T15:11:23;10.73;;;10.23;;
34737;SDS011;39910;47.154;27.614;2022-08-25T15:13:49;11.25;;;10.65;;
34737;SDS011;39910;47.154;27.614;2022-08-25T15:16:16;11.00;;;10.50;;
34737;SDS011;39910;47.154;27.614;2022-08-25T15:18:48;10.60;;;10.10;;
34737;SDS011;39910;47.154;27.614;2022-08-25T15:21:14;11.02;;;10.52;;
34737;SDS011;39910;47.154;27.614;2022-08-25T15:23:39;10.95;;;10.45;;
34737;SDS011;39910;47.154;27.614;2022-08-25T15:26:05;10.63;;;10.13;;
34737;SDS011;39910;47.154;27.614;2022-08-25T15:28:34;10.85;;;10.35;;
34737;SDS011;39910;47.154;27.614;2022-08-25T15:31:00;10.88;;;10.38;;
34737;SDS011;39910;47.154;27.614;2022-08-25T15:33:25;10.48;;;9.98;;
34737;SDS011;39910;47.154;27.614;2022-08-25T15:35:51;10.82;;;10.32;;
34737;SDS011;39910;47.154;27.614;2022-08-25T15:38:17;10.73;;;10.23;;
34737;SDS011;39910;47.154;27.614;2022-08-25T15:40:42;10.88;;;10.38;;
34737;SDS011;39910;47.154;27.614;2022-08-25T15:43:08;11.68;;;11.18;;
34737;SDS011;39910;47.154;27.614;2022-08-25T15:45:34;10.70;;;10.20;;
34737;SDS011;39910;47.154;27.614;2022-08-25T15:48:00;10.05;;;9.65;;
34737;SDS011;39910;47.154;27.614;2022-08-25T15:50:25;10.73;;;10.23;;
34737;SDS011;39910;47.154;27.614;2022-08-25T15:52:51;11.23;;;10.73;;
34737;SDS011;39910;47.154;27.614;2022-08-25T15:55:16;11.02;;;10.52;;
34737;SDS011;39910;47.154;27.614;2022-08-25T15:57:42;11.02;;;10.52;;
34737;SDS011;39910;47.154;27.614;2022-08-25T16:00:08;11.15;;;10.65;;
34737;SDS011;39910;47.154;27.614;2022-08-25T16:02:36;10.55;;;10.05;;
34737;SDS011;39910;47.154;27.614;2022-08-25T16:05:04;10.45;;;9.95;;
34737;SDS011;39910;47.154;27.614;2022-08-25T16:07:30;10.10;;;9.70;;
34737;SDS011;39910;47.154;27.614;2022-08-25T16:09:56;10.40;;;9.90;;
34737;SDS011;39910;47.154;27.614;2022-08-25T16:12:23;10.80;;;10.30;;
34737;SDS011;39910;47.154;27.614;2022-08-25T16:14:50;10.40;;;9.90;;
34737;SDS011;39910;47.154;27.614;2022-08-25T16:17:19;10.85;;;10.35;;
34737;SDS011;39910;47.154;27.614;2022-08-25T16:19:45;10.70;;;10.20;;
34737;SDS011;39910;47.154;27.614;2022-08-25T16:22:11;10.45;;;9.95;;
34737;SDS011;39910;47.154;27.614;2022-08-25T16:24:40;10.35;;;9.85;;
34737;SDS011;39910;47.154;27.614;2022-08-25T16:27:09;9.90;;;9.50;;
34737;SDS011;39910;47.154;27.614;2022-08-25T16:29:35;10.65;;;10.15;;
34737;SDS011;39910;47.154;27.614;2022-08-25T16:32:04;10.25;;;9.80;;
34737;SDS011;39910;47.154;27.614;2022-08-25T16:34:31;10.88;;;10.38;;
34737;SDS011;39910;47.154;27.614;2022-08-25T16:36:56;10.63;;;10.13;;
34737;SDS011;39910;47.154;27.614;2022-08-25T16:39:22;10.75;;;10.25;;
34737;SDS011;39910;47.154;27.614;2022-08-25T16:41:48;10.50;;;10.00;;
34737;SDS011;39910;47.154;27.614;2022-08-25T16:44:14;10.77;;;10.27;;
34737;SDS011;39910;47.154;27.614;2022-08-25T16:46:40;10.60;;;10.10;;
34737;SDS011;39910;47.154;27.614;2022-08-25T16:49:07;11.07;;;10.57;;
34737;SDS011;39910;47.154;27.614;2022-08-25T16:51:35;10.80;;;10.30;;
34737;SDS011;39910;47.154;27.614;2022-08-25T16:54:02;10.63;;;10.13;;